sensor_id;sensor_type;location;lat;lon;timestamp;P1;durP1;ratioP1;P2;durP2;ratioP2
28007;SDS011;15333;50.010;20.020;2023-07-09T00:00:58;16.25;;;10.40;;
28007;SDS011;15333;50.010;20.020;2023-07-09T00:04:19;18.73;;;11.52;;
28007;SDS011;15333;50.010;20.020;2023-07-09T00:07:32;18.67;;;10.98;;
28007;SDS011;15333;50.010;20.020;2023-07-09T00:10:33;16.05;;;12.38;;
28007;SDS011;15333;50.010;20.020;2023-07-09T00:13:35;16.55;;;11.13;;
28007;SDS011;15333;50.010;20.020;2023-07-09T00:16:38;15.10;;;10.73;;
28007;SDS011;15333;50.010;20.020;2023-07-09T00:19:40;18.98;;;11.23;;
28007;SDS011;15333;50.010;20.020;2023-07-09T00:22:45;17.58;;;12.05;;
28007;SDS011;15333;50.010;20.020;2023-07-09T00:25:48;14.77;;;9.93;;
28007;SDS011;15333;50.010;20.020;2023-07-09T00:28:49;14.40;;;10.68;;
28007;SDS011;15333;50.010;20.020;2023-07-09T00:31:50;19.80;;;10.85;;
28007;SDS011;15333;50.010;20.020;2023-07-09T00:34:51;13.68;;;10.13;;
28007;SDS011;15333;50.010;20.020;2023-07-09T00:37:54;13.70;;;9.30;;
28007;SDS011;15333;50.010;20.020;2023-07-09T00:50:53;12.55;;;9.50;;
28007;SDS011;15333;50.010;20.020;2023-07-09T00:53:56;12.43;;;9.00;;
28007;SDS011;15333;50.010;20.020;2023-07-09T00:57:03;17.17;;;10.23;;
28007;SDS011;15333;50.010;20.020;2023-07-09T01:00:10;12.17;;;9.07;;
28007;SDS011;15333;50.010;20.020;2023-07-09T01:03:21;16.95;;;9.15;;
28007;SDS011;15333;50.010;20.020;2023-07-09T01:09:42;19.10;;;9.55;;
28007;SDS011;15333;50.010;20.020;2023-07-09T01:12:43;13.52;;;9.65;;
28007;SDS011;15333;50.010;20.020;2023-07-09T01:15:46;14.85;;;9.80;;
28007;SDS011;15333;50.010;20.020;2023-07-09T01:18:47;13.50;;;9.60;;
28007;SDS011;15333;50.010;20.020;2023-07-09T01:21:48;15.25;;;9.68;;
28007;SDS011;15333;50.010;20.020;2023-07-09T01:27:55;13.10;;;8.63;;
28007;SDS011;15333;50.010;20.020;2023-07-09T01:30:59;12.63;;;8.30;;
28007;SDS011;15333;50.010;20.020;2023-07-09T01:34:01;12.25;;;7.50;;
28007;SDS011;15333;50.010;20.020;2023-07-09T01:37:01;15.73;;;8.13;;
28007;SDS011;15333;50.010;20.020;2023-07-09T01:40:04;11.40;;;7.93;;
28007;SDS011;15333;50.010;20.020;2023-07-09T01:43:07;10.43;;;7.60;;
28007;SDS011;15333;50.010;20.020;2023-07-09T01:46:08;11.93;;;7.45;;
28007;SDS011;15333;50.010;20.020;2023-07-09T01:49:12;10.35;;;7.95;;
28007;SDS011;15333;50.010;20.020;2023-07-09T01:52:15;12.50;;;7.75;;
28007;SDS011;15333;50.010;20.020;2023-07-09T01:55:19;11.23;;;7.10;;
28007;SDS011;15333;50.010;20.020;2023-07-09T01:58:21;12.40;;;8.90;;
28007;SDS011;15333;50.010;20.020;2023-07-09T02:01:25;12.43;;;7.95;;
28007;SDS011;15333;50.010;20.020;2023-07-09T02:04:26;10.52;;;7.25;;
28007;SDS011;15333;50.010;20.020;2023-07-09T02:07:27;10.73;;;7.32;;
28007;SDS011;15333;50.010;20.020;2023-07-09T02:10:29;13.20;;;7.82;;
28007;SDS011;15333;50.010;20.020;2023-07-09T02:13:30;12.43;;;7.13;;
28007;SDS011;15333;50.010;20.020;2023-07-09T02:16:31;10.95;;;7.10;;
28007;SDS011;15333;50.010;20.020;2023-07-09T02:19:32;9.63;;;6.93;;
28007;SDS011;15333;50.010;20.020;2023-07-09T02:22:33;9.95;;;7.18;;
28007;SDS011;15333;50.010;20.020;2023-07-09T02:25:35;11.77;;;6.45;;
28007;SDS011;15333;50.010;20.020;2023-07-09T02:28:36;13.35;;;7.10;;
28007;SDS011;15333;50.010;20.020;2023-07-09T02:31:37;9.13;;;6.57;;
28007;SDS011;15333;50.010;20.020;2023-07-09T02:34:38;8.02;;;6.45;;
28007;SDS011;15333;50.010;20.020;2023-07-09T02:37:39;9.68;;;6.35;;
28007;SDS011;15333;50.010;20.020;2023-07-09T02:40:40;9.23;;;6.28;;
28007;SDS011;15333;50.010;20.020;2023-07-09T02:43:40;9.45;;;6.45;;
28007;SDS011;15333;50.010;20.020;2023-07-09T02:46:42;10.02;;;7.05;;
28007;SDS011;15333;50.010;20.020;2023-07-09T02:49:43;9.63;;;7.25;;
28007;SDS011;15333;50.010;20.020;2023-07-09T02:52:44;11.40;;;7.05;;
28007;SDS011;15333;50.010;20.020;2023-07-09T02:55:45;10.15;;;6.65;;
28007;SDS011;15333;50.010;20.020;2023-07-09T02:58:46;12.60;;;7.35;;
28007;SDS011;15333;50.010;20.020;2023-07-09T03:01:48;12.77;;;7.30;;
28007;SDS011;15333;50.010;20.020;2023-07-09T03:04:49;12.38;;;7.00;;
28007;SDS011;15333;50.010;20.020;2023-07-09T03:07:50;10.45;;;7.15;;
28007;SDS011;15333;50.010;20.020;2023-07-09T03:10:51;12.52;;;7.15;;
28007;SDS011;15333;50.010;20.020;2023-07-09T03:13:52;8.20;;;6.32;;
28007;SDS011;15333;50.010;20.020;2023-07-09T03:16:53;11.07;;;7.05;;
28007;SDS011;15333;50.010;20.020;2023-07-09T03:19:56;12.35;;;6.55;;
28007;SDS011;15333;50.010;20.020;2023-07-09T03:22:57;10.02;;;6.88;;
28007;SDS011;15333;50.010;20.020;2023-07-09T03:25:58;9.32;;;6.88;;
28007;SDS011;15333;50.010;20.020;2023-07-09T03:29:00;12.85;;;7.10;;
28007;SDS011;15333;50.010;20.020;2023-07-09T03:32:01;7.70;;;6.22;;
28007;SDS011;15333;50.010;20.020;2023-07-09T03:35:02;10.02;;;6.10;;
28007;SDS011;15333;50.010;20.020;2023-07-09T03:38:03;7.88;;;6.32;;
28007;SDS011;15333;50.010;20.020;2023-07-09T03:41:05;9.77;;;6.38;;
28007;SDS011;15333;50.010;20.020;2023-07-09T03:44:06;10.73;;;6.50;;
28007;SDS011;15333;50.010;20.020;2023-07-09T03:47:07;8.95;;;6.72;;
28007;SDS011;15333;50.010;20.020;2023-07-09T03:50:09;8.50;;;6.30;;
28007;SDS011;15333;50.010;20.020;2023-07-09T03:53:10;8.48;;;6.30;;
28007;SDS011;15333;50.010;20.020;2023-07-09T03:56:12;9.80;;;6.65;;
28007;SDS011;15333;50.010;20.020;2023-07-09T03:59:13;7.75;;;6.25;;
28007;SDS011;15333;50.010;20.020;2023-07-09T04:02:13;8.02;;;6.18;;
28007;SDS011;15333;50.010;20.020;2023-07-09T04:05:14;7.53;;;5.82;;
28007;SDS011;15333;50.010;20.020;2023-07-09T04:08:15;6.97;;;5.63;;
28007;SDS011;15333;50.010;20.020;2023-07-09T04:11:17;7.68;;;6.25;;
28007;SDS011;15333;50.010;20.020;2023-07-09T04:14:17;8.32;;;5.88;;
28007;SDS011;15333;50.010;20.020;2023-07-09T04:17:18;8.23;;;6.00;;
28007;SDS011;15333;50.010;20.020;2023-07-09T04:20:20;6.50;;;5.68;;
28007;SDS011;15333;50.010;20.020;2023-07-09T04:23:21;9.48;;;6.10;;
28007;SDS011;15333;50.010;20.020;2023-07-09T04:26:21;8.60;;;5.70;;
28007;SDS011;15333;50.010;20.020;2023-07-09T04:29:24;7.68;;;5.55;;
28007;SDS011;15333;50.010;20.020;2023-07-09T04:32:25;10.00;;;5.80;;
28007;SDS011;15333;50.010;20.020;2023-07-09T04:35:26;5.93;;;5.18;;
28007;SDS011;15333;50.010;20.020;2023-07-09T04:38:26;7.38;;;5.38;;
28007;SDS011;15333;50.010;20.020;2023-07-09T04:41:28;10.88;;;5.90;;
28007;SDS011;15333;50.010;20.020;2023-07-09T04:44:28;6.18;;;5.50;;
28007;SDS011;15333;50.010;20.020;2023-07-09T04:47:30;10.48;;;6.20;;
28007;SDS011;15333;50.010;20.020;2023-07-09T04:50:30;8.10;;;5.72;;
28007;SDS011;15333;50.010;20.020;2023-07-09T04:53:31;6.95;;;5.25;;
28007;SDS011;15333;50.010;20.020;2023-07-09T04:56:32;6.72;;;5.25;;
28007;SDS011;15333;50.010;20.020;2023-07-09T04:59:33;7.57;;;4.55;;
28007;SDS011;15333;50.010;20.020;2023-07-09T05:02:34;7.75;;;4.97;;
28007;SDS011;15333;50.010;20.020;2023-07-09T05:05:35;7.85;;;5.40;;
28007;SDS011;15333;50.010;20.020;2023-07-09T05:08:42;5.15;;;4.53;;
28007;SDS011;15333;50.010;20.020;2023-07-09T05:11:43;6.20;;;4.80;;
28007;SDS011;15333;50.010;20.020;2023-07-09T05:14:44;6.05;;;4.50;;
28007;SDS011;15333;50.010;20.020;2023-07-09T05:17:45;7.35;;;4.90;;
28007;SDS011;15333;50.010;20.020;2023-07-09T05:20:47;5.65;;;4.65;;
28007;SDS011;15333;50.010;20.020;2023-07-09T05:23:48;5.72;;;4.68;;
28007;SDS011;15333;50.010;20.020;2023-07-09T05:26:49;6.70;;;4.85;;
28007;SDS011;15333;50.010;20.020;2023-07-09T05:29:50;6.78;;;4.97;;
28007;SDS011;15333;50.010;20.020;2023-07-09T05:32:50;5.65;;;4.75;;
28007;SDS011;15333;50.010;20.020;2023-07-09T05:35:54;7.53;;;4.70;;
28007;SDS011;15333;50.010;20.020;2023-07-09T05:38:55;8.98;;;4.90;;
28007;SDS011;15333;50.010;20.020;2023-07-09T05:41:57;5.70;;;4.70;;
28007;SDS011;15333;50.010;20.020;2023-07-09T05:44:58;9.23;;;6.00;;
28007;SDS011;15333;50.010;20.020;2023-07-09T05:47:59;5.65;;;5.00;;
28007;SDS011;15333;50.010;20.020;2023-07-09T05:51:00;8.20;;;5.25;;
28007;SDS011;15333;50.010;20.020;2023-07-09T05:54:01;7.38;;;4.70;;
28007;SDS011;15333;50.010;20.020;2023-07-09T05:57:02;5.72;;;4.88;;
28007;SDS011;15333;50.010;20.020;2023-07-09T06:00:04;7.72;;;5.97;;
28007;SDS011;15333;50.010;20.020;2023-07-09T06:03:13;8.32;;;5.00;;
28007;SDS011;15333;50.010;20.020;2023-07-09T06:06:14;6.90;;;4.53;;
28007;SDS011;15333;50.010;20.020;2023-07-09T06:09:15;7.20;;;5.10;;
28007;SDS011;15333;50.010;20.020;2023-07-09T06:12:16;5.13;;;4.63;;
28007;SDS011;15333;50.010;20.020;2023-07-09T06:15:19;7.13;;;5.10;;
28007;SDS011;15333;50.010;20.020;2023-07-09T06:18:20;8.35;;;5.03;;
28007;SDS011;15333;50.010;20.020;2023-07-09T06:21:22;8.27;;;5.35;;
28007;SDS011;15333;50.010;20.020;2023-07-09T06:24:23;8.98;;;5.80;;
28007;SDS011;15333;50.010;20.020;2023-07-09T06:27:24;7.95;;;5.47;;
28007;SDS011;15333;50.010;20.020;2023-07-09T06:30:25;7.65;;;5.50;;
28007;SDS011;15333;50.010;20.020;2023-07-09T06:33:26;8.20;;;5.57;;
28007;SDS011;15333;50.010;20.020;2023-07-09T06:36:28;9.40;;;5.13;;
28007;SDS011;15333;50.010;20.020;2023-07-09T06:39:28;6.82;;;5.25;;
28007;SDS011;15333;50.010;20.020;2023-07-09T06:42:29;7.45;;;5.38;;
28007;SDS011;15333;50.010;20.020;2023-07-09T06:49:00;5.40;;;4.63;;
28007;SDS011;15333;50.010;20.020;2023-07-09T06:52:01;6.03;;;4.85;;
28007;SDS011;15333;50.010;20.020;2023-07-09T06:55:02;8.00;;;4.68;;
28007;SDS011;15333;50.010;20.020;2023-07-09T06:58:03;6.90;;;4.75;;
28007;SDS011;15333;50.010;20.020;2023-07-09T07:01:04;8.27;;;5.63;;
28007;SDS011;15333;50.010;20.020;2023-07-09T07:04:05;9.50;;;5.47;;
28007;SDS011;15333;50.010;20.020;2023-07-09T07:07:07;6.07;;;5.10;;
28007;SDS011;15333;50.010;20.020;2023-07-09T07:10:08;6.13;;;5.18;;
28007;SDS011;15333;50.010;20.020;2023-07-09T07:13:09;8.25;;;5.07;;
28007;SDS011;15333;50.010;20.020;2023-07-09T07:16:11;5.90;;;4.97;;
28007;SDS011;15333;50.010;20.020;2023-07-09T07:19:13;8.77;;;4.97;;
28007;SDS011;15333;50.010;20.020;2023-07-09T07:22:13;6.32;;;4.80;;
28007;SDS011;15333;50.010;20.020;2023-07-09T07:25:14;6.03;;;4.82;;
28007;SDS011;15333;50.010;20.020;2023-07-09T07:28:15;5.20;;;4.70;;
28007;SDS011;15333;50.010;20.020;2023-07-09T07:31:17;6.00;;;4.75;;
28007;SDS011;15333;50.010;20.020;2023-07-09T07:34:17;5.57;;;4.53;;
28007;SDS011;15333;50.010;20.020;2023-07-09T07:37:18;5.95;;;4.75;;
28007;SDS011;15333;50.010;20.020;2023-07-09T07:40:22;7.05;;;5.47;;
28007;SDS011;15333;50.010;20.020;2023-07-09T07:43:23;5.93;;;5.00;;
28007;SDS011;15333;50.010;20.020;2023-07-09T07:46:24;9.75;;;5.35;;
28007;SDS011;15333;50.010;20.020;2023-07-09T07:49:25;8.80;;;5.43;;
28007;SDS011;15333;50.010;20.020;2023-07-09T07:52:27;8.02;;;4.55;;
28007;SDS011;15333;50.010;20.020;2023-07-09T07:55:28;6.90;;;5.20;;
28007;SDS011;15333;50.010;20.020;2023-07-09T07:58:30;7.40;;;4.93;;
28007;SDS011;15333;50.010;20.020;2023-07-09T08:01:32;8.73;;;4.97;;
28007;SDS011;15333;50.010;20.020;2023-07-09T08:04:35;5.57;;;4.93;;
28007;SDS011;15333;50.010;20.020;2023-07-09T08:07:36;10.55;;;5.45;;
28007;SDS011;15333;50.010;20.020;2023-07-09T08:10:37;6.45;;;4.82;;
28007;SDS011;15333;50.010;20.020;2023-07-09T08:13:38;6.30;;;5.28;;
28007;SDS011;15333;50.010;20.020;2023-07-09T08:16:38;13.20;;;5.20;;
28007;SDS011;15333;50.010;20.020;2023-07-09T08:19:47;8.30;;;5.82;;
28007;SDS011;15333;50.010;20.020;2023-07-09T08:25:54;10.00;;;6.00;;
28007;SDS011;15333;50.010;20.020;2023-07-09T08:28:56;10.88;;;4.85;;
28007;SDS011;15333;50.010;20.020;2023-07-09T08:31:57;5.10;;;4.60;;
28007;SDS011;15333;50.010;20.020;2023-07-09T08:34:58;7.03;;;5.35;;
28007;SDS011;15333;50.010;20.020;2023-07-09T08:37:59;7.80;;;5.60;;
28007;SDS011;15333;50.010;20.020;2023-07-09T08:41:01;8.45;;;5.00;;
28007;SDS011;15333;50.010;20.020;2023-07-09T08:51:39;10.32;;;4.72;;
28007;SDS011;15333;50.010;20.020;2023-07-09T08:54:43;8.88;;;5.10;;
28007;SDS011;15333;50.010;20.020;2023-07-09T08:57:49;6.10;;;4.93;;
28007;SDS011;15333;50.010;20.020;2023-07-09T09:01:02;7.82;;;4.88;;
28007;SDS011;15333;50.010;20.020;2023-07-09T09:04:24;5.43;;;4.40;;
28007;SDS011;15333;50.010;20.020;2023-07-09T09:07:33;7.32;;;4.90;;
28007;SDS011;15333;50.010;20.020;2023-07-09T09:10:46;10.70;;;5.30;;
28007;SDS011;15333;50.010;20.020;2023-07-09T09:13:53;9.30;;;4.65;;
28007;SDS011;15333;50.010;20.020;2023-07-09T09:16:59;6.43;;;4.97;;
28007;SDS011;15333;50.010;20.020;2023-07-09T09:20:03;7.60;;;5.25;;
28007;SDS011;15333;50.010;20.020;2023-07-09T09:23:15;7.40;;;4.97;;
28007;SDS011;15333;50.010;20.020;2023-07-09T09:29:34;5.50;;;4.90;;
28007;SDS011;15333;50.010;20.020;2023-07-09T09:36:43;5.15;;;4.65;;
28007;SDS011;15333;50.010;20.020;2023-07-09T09:39:37;7.57;;;5.28;;
28007;SDS011;15333;50.010;20.020;2023-07-09T09:42:39;9.60;;;5.13;;
28007;SDS011;15333;50.010;20.020;2023-07-09T09:45:43;12.43;;;5.28;;
28007;SDS011;15333;50.010;20.020;2023-07-09T09:48:46;6.07;;;5.47;;
28007;SDS011;15333;50.010;20.020;2023-07-09T09:51:49;6.18;;;4.90;;
28007;SDS011;15333;50.010;20.020;2023-07-09T09:55:01;8.27;;;4.95;;
28007;SDS011;15333;50.010;20.020;2023-07-09T09:58:16;7.32;;;4.72;;
28007;SDS011;15333;50.010;20.020;2023-07-09T10:01:18;8.07;;;5.35;;
28007;SDS011;15333;50.010;20.020;2023-07-09T10:04:19;9.32;;;5.00;;
28007;SDS011;15333;50.010;20.020;2023-07-09T10:07:26;6.00;;;5.25;;
28007;SDS011;15333;50.010;20.020;2023-07-09T10:10:34;7.70;;;5.13;;
28007;SDS011;15333;50.010;20.020;2023-07-09T10:13:37;10.68;;;5.60;;
28007;SDS011;15333;50.010;20.020;2023-07-09T10:16:44;5.93;;;4.50;;
28007;SDS011;15333;50.010;20.020;2023-07-09T10:19:58;7.40;;;4.85;;
28007;SDS011;15333;50.010;20.020;2023-07-09T10:23:16;7.13;;;5.05;;
28007;SDS011;15333;50.010;20.020;2023-07-09T10:26:45;5.55;;;5.03;;
28007;SDS011;15333;50.010;20.020;2023-07-09T10:33:22;7.43;;;4.95;;
28007;SDS011;15333;50.010;20.020;2023-07-09T10:39:46;11.07;;;4.40;;
28007;SDS011;15333;50.010;20.020;2023-07-09T10:42:50;9.75;;;4.50;;
28007;SDS011;15333;50.010;20.020;2023-07-09T10:45:56;7.20;;;5.53;;
28007;SDS011;15333;50.010;20.020;2023-07-09T10:49:03;5.68;;;5.18;;
28007;SDS011;15333;50.010;20.020;2023-07-09T10:52:12;6.35;;;5.10;;
28007;SDS011;15333;50.010;20.020;2023-07-09T10:55:23;7.38;;;5.00;;
28007;SDS011;15333;50.010;20.020;2023-07-09T10:58:34;5.10;;;4.60;;
28007;SDS011;15333;50.010;20.020;2023-07-09T11:01:40;7.35;;;5.38;;
28007;SDS011;15333;50.010;20.020;2023-07-09T11:04:52;8.25;;;5.15;;
28007;SDS011;15333;50.010;20.020;2023-07-09T11:18:05;8.57;;;4.85;;
28007;SDS011;15333;50.010;20.020;2023-07-09T11:21:14;8.48;;;5.22;;
28007;SDS011;15333;50.010;20.020;2023-07-09T11:24:43;7.72;;;5.10;;
28007;SDS011;15333;50.010;20.020;2023-07-09T11:28:03;8.60;;;5.78;;
28007;SDS011;15333;50.010;20.020;2023-07-09T11:31:07;9.10;;;5.20;;
28007;SDS011;15333;50.010;20.020;2023-07-09T11:34:18;11.15;;;6.20;;
28007;SDS011;15333;50.010;20.020;2023-07-09T11:37:24;7.28;;;5.90;;
28007;SDS011;15333;50.010;20.020;2023-07-09T11:40:26;7.85;;;5.50;;
28007;SDS011;15333;50.010;20.020;2023-07-09T11:43:28;8.40;;;6.00;;
28007;SDS011;15333;50.010;20.020;2023-07-09T11:46:32;9.05;;;5.57;;
28007;SDS011;15333;50.010;20.020;2023-07-09T11:50:21;6.78;;;5.50;;
28007;SDS011;15333;50.010;20.020;2023-07-09T11:53:05;9.10;;;5.50;;
28007;SDS011;15333;50.010;20.020;2023-07-09T11:56:26;6.22;;;5.63;;
28007;SDS011;15333;50.010;20.020;2023-07-09T11:59:27;6.35;;;5.30;;
28007;SDS011;15333;50.010;20.020;2023-07-09T12:02:33;7.15;;;5.55;;
28007;SDS011;15333;50.010;20.020;2023-07-09T12:05:36;6.78;;;5.40;;
28007;SDS011;15333;50.010;20.020;2023-07-09T12:08:39;6.70;;;5.38;;
28007;SDS011;15333;50.010;20.020;2023-07-09T12:11:43;7.30;;;5.75;;
28007;SDS011;15333;50.010;20.020;2023-07-09T12:14:46;6.30;;;5.30;;
28007;SDS011;15333;50.010;20.020;2023-07-09T12:17:54;7.75;;;5.55;;
28007;SDS011;15333;50.010;20.020;2023-07-09T12:20:57;7.22;;;5.43;;
28007;SDS011;15333;50.010;20.020;2023-07-09T12:23:58;7.50;;;6.20;;
28007;SDS011;15333;50.010;20.020;2023-07-09T12:27:00;6.30;;;5.68;;
28007;SDS011;15333;50.010;20.020;2023-07-09T12:30:09;10.65;;;5.65;;
28007;SDS011;15333;50.010;20.020;2023-07-09T12:33:14;6.13;;;5.53;;
28007;SDS011;15333;50.010;20.020;2023-07-09T12:36:18;6.90;;;5.55;;
28007;SDS011;15333;50.010;20.020;2023-07-09T12:39:23;6.15;;;5.13;;
28007;SDS011;15333;50.010;20.020;2023-07-09T12:42:33;7.28;;;5.60;;
28007;SDS011;15333;50.010;20.020;2023-07-09T12:45:36;7.38;;;5.60;;
28007;SDS011;15333;50.010;20.020;2023-07-09T12:48:37;7.22;;;5.45;;
28007;SDS011;15333;50.010;20.020;2023-07-09T12:51:38;5.72;;;5.15;;
28007;SDS011;15333;50.010;20.020;2023-07-09T12:54:40;5.88;;;5.28;;
28007;SDS011;15333;50.010;20.020;2023-07-09T12:57:41;7.57;;;5.72;;
28007;SDS011;15333;50.010;20.020;2023-07-09T13:00:42;8.57;;;5.88;;
28007;SDS011;15333;50.010;20.020;2023-07-09T13:03:56;6.65;;;6.05;;
28007;SDS011;15333;50.010;20.020;2023-07-09T13:06:57;7.82;;;6.28;;
28007;SDS011;15333;50.010;20.020;2023-07-09T13:10:05;7.57;;;5.83;;
28007;SDS011;15333;50.010;20.020;2023-07-09T13:13:19;6.20;;;5.57;;
28007;SDS011;15333;50.010;20.020;2023-07-09T13:16:23;6.13;;;5.25;;
28007;SDS011;15333;50.010;20.020;2023-07-09T13:19:25;8.30;;;5.75;;
28007;SDS011;15333;50.010;20.020;2023-07-09T13:22:27;6.57;;;5.68;;
28007;SDS011;15333;50.010;20.020;2023-07-09T13:25:31;8.23;;;6.18;;
28007;SDS011;15333;50.010;20.020;2023-07-09T13:28:32;8.27;;;6.18;;
28007;SDS011;15333;50.010;20.020;2023-07-09T13:31:32;6.78;;;5.82;;
28007;SDS011;15333;50.010;20.020;2023-07-09T13:34:33;8.02;;;5.57;;
28007;SDS011;15333;50.010;20.020;2023-07-09T13:37:35;8.50;;;5.30;;
28007;SDS011;15333;50.010;20.020;2023-07-09T13:40:36;7.53;;;5.68;;
28007;SDS011;15333;50.010;20.020;2023-07-09T13:43:37;8.25;;;5.45;;
28007;SDS011;15333;50.010;20.020;2023-07-09T13:46:42;7.40;;;5.55;;
28007;SDS011;15333;50.010;20.020;2023-07-09T13:49:43;6.28;;;5.68;;
28007;SDS011;15333;50.010;20.020;2023-07-09T13:52:46;6.78;;;5.40;;
28007;SDS011;15333;50.010;20.020;2023-07-09T13:55:47;6.30;;;5.63;;
28007;SDS011;15333;50.010;20.020;2023-07-09T13:58:50;6.35;;;5.40;;
28007;SDS011;15333;50.010;20.020;2023-07-09T14:01:52;5.80;;;5.20;;
28007;SDS011;15333;50.010;20.020;2023-07-09T14:04:58;6.68;;;5.20;;
28007;SDS011;15333;50.010;20.020;2023-07-09T14:08:01;8.07;;;5.32;;
28007;SDS011;15333;50.010;20.020;2023-07-09T14:11:02;8.35;;;5.15;;
28007;SDS011;15333;50.010;20.020;2023-07-09T14:14:04;8.18;;;5.07;;
28007;SDS011;15333;50.010;20.020;2023-07-09T14:17:25;6.25;;;5.53;;
28007;SDS011;15333;50.010;20.020;2023-07-09T14:20:26;7.65;;;5.20;;
28007;SDS011;15333;50.010;20.020;2023-07-09T14:23:27;6.20;;;5.38;;
28007;SDS011;15333;50.010;20.020;2023-07-09T14:26:28;5.97;;;5.47;;
28007;SDS011;15333;50.010;20.020;2023-07-09T14:29:29;6.00;;;5.28;;
28007;SDS011;15333;50.010;20.020;2023-07-09T14:32:34;9.65;;;6.25;;
28007;SDS011;15333;50.010;20.020;2023-07-09T14:35:38;7.40;;;5.50;;
28007;SDS011;15333;50.010;20.020;2023-07-09T14:38:38;7.50;;;4.97;;
28007;SDS011;15333;50.010;20.020;2023-07-09T14:41:40;9.15;;;5.25;;
28007;SDS011;15333;50.010;20.020;2023-07-09T14:44:41;6.25;;;5.35;;
28007;SDS011;15333;50.010;20.020;2023-07-09T14:47:43;6.82;;;5.03;;
28007;SDS011;15333;50.010;20.020;2023-07-09T14:50:44;7.15;;;5.55;;
28007;SDS011;15333;50.010;20.020;2023-07-09T14:53:45;8.15;;;5.57;;
28007;SDS011;15333;50.010;20.020;2023-07-09T14:56:47;6.43;;;5.20;;
28007;SDS011;15333;50.010;20.020;2023-07-09T14:59:49;11.18;;;5.75;;
28007;SDS011;15333;50.010;20.020;2023-07-09T15:02:50;8.23;;;5.95;;
28007;SDS011;15333;50.010;20.020;2023-07-09T15:05:53;6.50;;;5.68;;
28007;SDS011;15333;50.010;20.020;2023-07-09T15:08:57;8.20;;;5.53;;
28007;SDS011;15333;50.010;20.020;2023-07-09T15:11:58;7.93;;;5.35;;
28007;SDS011;15333;50.010;20.020;2023-07-09T15:15:12;5.72;;;5.00;;
28007;SDS011;15333;50.010;20.020;2023-07-09T15:18:17;6.05;;;5.10;;
28007;SDS011;15333;50.010;20.020;2023-07-09T15:21:18;8.60;;;5.47;;
28007;SDS011;15333;50.010;20.020;2023-07-09T15:24:21;8.82;;;5.68;;
28007;SDS011;15333;50.010;20.020;2023-07-09T15:27:25;9.18;;;5.40;;
28007;SDS011;15333;50.010;20.020;2023-07-09T15:30:27;6.35;;;5.28;;
28007;SDS011;15333;50.010;20.020;2023-07-09T15:33:31;7.35;;;5.50;;
28007;SDS011;15333;50.010;20.020;2023-07-09T15:36:32;7.80;;;5.80;;
28007;SDS011;15333;50.010;20.020;2023-07-09T15:39:33;5.43;;;4.93;;
28007;SDS011;15333;50.010;20.020;2023-07-09T15:42:34;12.45;;;5.32;;
28007;SDS011;15333;50.010;20.020;2023-07-09T15:45:39;7.63;;;5.65;;
28007;SDS011;15333;50.010;20.020;2023-07-09T15:48:43;8.30;;;5.70;;
28007;SDS011;15333;50.010;20.020;2023-07-09T15:51:45;8.18;;;5.47;;
28007;SDS011;15333;50.010;20.020;2023-07-09T15:54:46;7.22;;;5.43;;
28007;SDS011;15333;50.010;20.020;2023-07-09T15:57:48;7.03;;;5.32;;
28007;SDS011;15333;50.010;20.020;2023-07-09T16:00:50;7.07;;;5.30;;
28007;SDS011;15333;50.010;20.020;2023-07-09T16:03:52;8.18;;;5.38;;
28007;SDS011;15333;50.010;20.020;2023-07-09T16:07:00;7.65;;;5.63;;
28007;SDS011;15333;50.010;20.020;2023-07-09T16:10:02;8.35;;;5.93;;
28007;SDS011;15333;50.010;20.020;2023-07-09T16:13:03;6.90;;;5.22;;
28007;SDS011;15333;50.010;20.020;2023-07-09T16:16:16;8.35;;;5.72;;
28007;SDS011;15333;50.010;20.020;2023-07-09T16:19:22;7.50;;;5.78;;
28007;SDS011;15333;50.010;20.020;2023-07-09T16:22:24;8.05;;;5.97;;
28007;SDS011;15333;50.010;20.020;2023-07-09T16:25:35;7.47;;;5.75;;
28007;SDS011;15333;50.010;20.020;2023-07-09T16:28:36;8.05;;;5.40;;
28007;SDS011;15333;50.010;20.020;2023-07-09T16:31:37;8.40;;;5.22;;
28007;SDS011;15333;50.010;20.020;2023-07-09T16:34:38;8.18;;;5.40;;
28007;SDS011;15333;50.010;20.020;2023-07-09T16:37:39;9.25;;;5.25;;
28007;SDS011;15333;50.010;20.020;2023-07-09T16:40:41;7.85;;;5.68;;
28007;SDS011;15333;50.010;20.020;2023-07-09T16:43:42;7.43;;;5.72;;
28007;SDS011;15333;50.010;20.020;2023-07-09T16:46:43;7.35;;;5.38;;
28007;SDS011;15333;50.010;20.020;2023-07-09T16:49:44;7.32;;;5.00;;
28007;SDS011;15333;50.010;20.020;2023-07-09T16:52:46;7.20;;;5.57;;
28007;SDS011;15333;50.010;20.020;2023-07-09T16:55:49;6.30;;;5.60;;
28007;SDS011;15333;50.010;20.020;2023-07-09T16:58:50;10.35;;;5.60;;
28007;SDS011;15333;50.010;20.020;2023-07-09T17:01:51;7.00;;;4.75;;
28007;SDS011;15333;50.010;20.020;2023-07-09T17:04:53;7.30;;;5.20;;
28007;SDS011;15333;50.010;20.020;2023-07-09T17:07:55;8.63;;;5.55;;
28007;SDS011;15333;50.010;20.020;2023-07-09T17:10:56;5.70;;;5.10;;
28007;SDS011;15333;50.010;20.020;2023-07-09T17:14:00;5.25;;;4.75;;
28007;SDS011;15333;50.010;20.020;2023-07-09T17:17:01;9.70;;;5.20;;
28007;SDS011;15333;50.010;20.020;2023-07-09T17:20:04;6.57;;;5.30;;
28007;SDS011;15333;50.010;20.020;2023-07-09T17:23:05;8.88;;;5.78;;
28007;SDS011;15333;50.010;20.020;2023-07-09T17:26:06;6.85;;;5.55;;
28007;SDS011;15333;50.010;20.020;2023-07-09T17:29:09;9.23;;;5.28;;
28007;SDS011;15333;50.010;20.020;2023-07-09T17:32:10;7.85;;;5.18;;
28007;SDS011;15333;50.010;20.020;2023-07-09T17:35:15;6.63;;;5.68;;
28007;SDS011;15333;50.010;20.020;2023-07-09T17:38:38;7.82;;;5.10;;
28007;SDS011;15333;50.010;20.020;2023-07-09T17:41:38;6.43;;;5.38;;
28007;SDS011;15333;50.010;20.020;2023-07-09T17:44:39;8.88;;;5.93;;
28007;SDS011;15333;50.010;20.020;2023-07-09T17:47:41;9.18;;;5.38;;
28007;SDS011;15333;50.010;20.020;2023-07-09T17:50:43;8.13;;;5.50;;
28007;SDS011;15333;50.010;20.020;2023-07-09T17:53:45;5.65;;;5.03;;
28007;SDS011;15333;50.010;20.020;2023-07-09T17:56:46;6.50;;;5.65;;
28007;SDS011;15333;50.010;20.020;2023-07-09T17:59:48;9.23;;;5.80;;
28007;SDS011;15333;50.010;20.020;2023-07-09T18:03:00;8.30;;;5.32;;
28007;SDS011;15333;50.010;20.020;2023-07-09T18:06:05;6.88;;;5.40;;
28007;SDS011;15333;50.010;20.020;2023-07-09T18:09:06;8.32;;;5.65;;
28007;SDS011;15333;50.010;20.020;2023-07-09T18:12:11;7.93;;;5.63;;
28007;SDS011;15333;50.010;20.020;2023-07-09T18:15:16;7.03;;;5.30;;
28007;SDS011;15333;50.010;20.020;2023-07-09T18:18:23;10.88;;;5.55;;
28007;SDS011;15333;50.010;20.020;2023-07-09T18:21:24;7.45;;;5.78;;
28007;SDS011;15333;50.010;20.020;2023-07-09T18:24:25;10.00;;;5.95;;
28007;SDS011;15333;50.010;20.020;2023-07-09T18:27:29;6.50;;;5.78;;
28007;SDS011;15333;50.010;20.020;2023-07-09T18:30:35;7.70;;;5.82;;
28007;SDS011;15333;50.010;20.020;2023-07-09T18:33:37;7.53;;;5.97;;
28007;SDS011;15333;50.010;20.020;2023-07-09T18:36:39;10.95;;;6.20;;
28007;SDS011;15333;50.010;20.020;2023-07-09T18:39:42;6.57;;;5.85;;
28007;SDS011;15333;50.010;20.020;2023-07-09T18:42:43;12.18;;;7.03;;
28007;SDS011;15333;50.010;20.020;2023-07-09T18:45:45;11.40;;;6.45;;
28007;SDS011;15333;50.010;20.020;2023-07-09T18:48:47;7.30;;;5.97;;
28007;SDS011;15333;50.010;20.020;2023-07-09T18:51:48;11.38;;;6.35;;
28007;SDS011;15333;50.010;20.020;2023-07-09T18:54:51;12.32;;;6.65;;
28007;SDS011;15333;50.010;20.020;2023-07-09T18:57:53;10.60;;;6.30;;